ENHD/HAU METAR and TAF weather

Enter ICAO airport designator
Station Type Date Time Source
ENHD METAR 2019/08/17 10:50 UTC NOAA

ENHD 171050Z 20017G27KT 9999 FEW010 SCT018 18/15 Q0993


Station Type Date Time Source
ENHD Decoded METAR 2019/08/17 10:50 UTC NOAA

Station name not available
Aug 17, 2019 - 06:50 AM EDT / 2019.08.17 1050 UTC
Wind: from the SSW (200 degrees) at 20 MPH (17 KT) gusting to 31 MPH (27 KT):0
Visibility: greater than 7 mile(s):0
Sky conditions: partly cloudy
Temperature: 64 F (18 C)
Dew Point: 59 F (15 C)
Relative Humidity: 82%
Pressure (altimeter): 29.32 in. Hg (0993 hPa)
ob: ENHD 171050Z 20017G27KT 9999 FEW010 SCT018 18/15 Q0993
cycle: 11

Station Type Date Time Source
ENHD TAF UTC NOAA

Error!

Example: see airport list